sensor_id;sensor_type;location;lat;lon;timestamp;pressure;altitude;pressure_sealevel;temperature;humidity
74960;BME280;63518;49.572;1.106;2023-07-29T00:01:44;98940.53;;;16.82;100.00
74960;BME280;63518;49.572;1.106;2023-07-29T00:04:12;98950.44;;;16.91;100.00
74960;BME280;63518;49.572;1.106;2023-07-29T00:06:38;98933.75;;;16.91;100.00
74960;BME280;63518;49.572;1.106;2023-07-29T00:09:05;98945.50;;;17.09;100.00
74960;BME280;63518;49.572;1.106;2023-07-29T00:11:32;98953.31;;;17.28;100.00
74960;BME280;63518;49.572;1.106;2023-07-29T00:14:01;98941.19;;;17.12;100.00
74960;BME280;63518;49.572;1.106;2023-07-29T00:16:28;98937.06;;;17.18;100.00
74960;BME280;63518;49.572;1.106;2023-07-29T00:18:57;98933.69;;;17.37;100.00
74960;BME280;63518;49.572;1.106;2023-07-29T00:21:24;98936.84;;;17.35;100.00
74960;BME280;63518;49.572;1.106;2023-07-29T00:23:51;98934.63;;;17.16;100.00
74960;BME280;63518;49.572;1.106;2023-07-29T00:26:18;98938.41;;;17.12;100.00
74960;BME280;63518;49.572;1.106;2023-07-29T00:28:45;98929.81;;;17.05;100.00
74960;BME280;63518;49.572;1.106;2023-07-29T00:31:11;98944.44;;;17.14;100.00
74960;BME280;63518;49.572;1.106;2023-07-29T00:33:38;98930.28;;;17.07;100.00
74960;BME280;63518;49.572;1.106;2023-07-29T00:36:05;98916.38;;;17.07;100.00
74960;BME280;63518;49.572;1.106;2023-07-29T00:38:32;98929.34;;;17.03;100.00
74960;BME280;63518;49.572;1.106;2023-07-29T00:41:04;98930.81;;;16.88;100.00
74960;BME280;63518;49.572;1.106;2023-07-29T00:43:31;98926.47;;;16.99;100.00
74960;BME280;63518;49.572;1.106;2023-07-29T00:45:59;98926.41;;;16.87;100.00
74960;BME280;63518;49.572;1.106;2023-07-29T00:48:26;98910.84;;;16.74;100.00
74960;BME280;63518;49.572;1.106;2023-07-29T00:50:54;98902.19;;;16.87;100.00
74960;BME280;63518;49.572;1.106;2023-07-29T00:53:21;98926.88;;;16.89;100.00
74960;BME280;63518;49.572;1.106;2023-07-29T00:55:48;98917.75;;;17.01;100.00
74960;BME280;63518;49.572;1.106;2023-07-29T00:58:14;98913.78;;;16.89;100.00
74960;BME280;63518;49.572;1.106;2023-07-29T01:00:41;98904.41;;;16.94;100.00
74960;BME280;63518;49.572;1.106;2023-07-29T01:03:08;98903.81;;;16.88;100.00
74960;BME280;63518;49.572;1.106;2023-07-29T01:05:59;98926.63;;;16.82;100.00
74960;BME280;63518;49.572;1.106;2023-07-29T01:11:26;98913.53;;;16.82;100.00
74960;BME280;63518;49.572;1.106;2023-07-29T01:14:05;98916.75;;;16.72;100.00
74960;BME280;63518;49.572;1.106;2023-07-29T01:16:42;98925.66;;;16.99;100.00
74960;BME280;63518;49.572;1.106;2023-07-29T01:21:59;98913.53;;;16.82;100.00
74960;BME280;63518;49.572;1.106;2023-07-29T01:24:27;98921.91;;;16.95;100.00
74960;BME280;63518;49.572;1.106;2023-07-29T01:26:54;98879.09;;;16.87;100.00
74960;BME280;63518;49.572;1.106;2023-07-29T01:29:21;98884.06;;;16.81;100.00
74960;BME280;63518;49.572;1.106;2023-07-29T01:31:52;98916.78;;;16.84;100.00
74960;BME280;63518;49.572;1.106;2023-07-29T01:34:26;98913.34;;;17.00;100.00
74960;BME280;63518;49.572;1.106;2023-07-29T01:36:57;98914.25;;;17.04;100.00
74960;BME280;63518;49.572;1.106;2023-07-29T01:39:29;98926.66;;;17.06;100.00
74960;BME280;63518;49.572;1.106;2023-07-29T01:41:59;98903.59;;;17.06;100.00
74960;BME280;63518;49.572;1.106;2023-07-29T01:44:26;98910.19;;;16.89;100.00
74960;BME280;63518;49.572;1.106;2023-07-29T01:46:55;98913.91;;;16.93;100.00
74960;BME280;63518;49.572;1.106;2023-07-29T01:49:22;98910.41;;;16.96;100.00
74960;BME280;63518;49.572;1.106;2023-07-29T01:51:49;98918.81;;;16.63;100.00
74960;BME280;63518;49.572;1.106;2023-07-29T01:54:16;98910.84;;;16.74;100.00
74960;BME280;63518;49.572;1.106;2023-07-29T01:56:43;98921.59;;;16.63;100.00
74960;BME280;63518;49.572;1.106;2023-07-29T01:59:10;98902.66;;;16.44;100.00
74960;BME280;63518;49.572;1.106;2023-07-29T02:01:37;98917.63;;;16.52;100.00
74960;BME280;63518;49.572;1.106;2023-07-29T02:04:04;98917.56;;;16.40;100.00
74960;BME280;63518;49.572;1.106;2023-07-29T02:06:31;98902.50;;;16.41;100.00
74960;BME280;63518;49.572;1.106;2023-07-29T02:08:58;98919.81;;;16.25;100.00
74960;BME280;63518;49.572;1.106;2023-07-29T02:11:25;98933.34;;;16.35;100.00
74960;BME280;63518;49.572;1.106;2023-07-29T02:13:55;98923.13;;;16.19;100.00
74960;BME280;63518;49.572;1.106;2023-07-29T02:16:22;98913.78;;;16.23;100.00
74960;BME280;63518;49.572;1.106;2023-07-29T02:18:49;98928.44;;;16.12;100.00
74960;BME280;63518;49.572;1.106;2023-07-29T02:21:19;98926.94;;;16.14;100.00
74960;BME280;63518;49.572;1.106;2023-07-29T02:23:46;98925.84;;;16.06;100.00
74960;BME280;63518;49.572;1.106;2023-07-29T02:26:12;98908.91;;;15.99;100.00
74960;BME280;63518;49.572;1.106;2023-07-29T02:28:39;98915.19;;;16.08;100.00
74960;BME280;63518;49.572;1.106;2023-07-29T02:31:23;98901.72;;;15.98;100.00
74960;BME280;63518;49.572;1.106;2023-07-29T02:33:51;98913.59;;;16.28;100.00
74960;BME280;63518;49.572;1.106;2023-07-29T02:36:18;98910.72;;;15.95;100.00
74960;BME280;63518;49.572;1.106;2023-07-29T02:38:45;98893.91;;;16.13;100.00
74960;BME280;63518;49.572;1.106;2023-07-29T02:41:12;98914.44;;;15.99;100.00
74960;BME280;63518;49.572;1.106;2023-07-29T02:43:41;98902.91;;;16.09;100.00
74960;BME280;63518;49.572;1.106;2023-07-29T02:46:08;98902.94;;;15.89;100.00
74960;BME280;63518;49.572;1.106;2023-07-29T02:48:36;98905.72;;;16.30;100.00
74960;BME280;63518;49.572;1.106;2023-07-29T02:51:03;98910.22;;;16.23;100.00
74960;BME280;63518;49.572;1.106;2023-07-29T02:53:30;98879.53;;;16.11;100.00
74960;BME280;63518;49.572;1.106;2023-07-29T02:55:57;98915.59;;;16.19;100.00
74960;BME280;63518;49.572;1.106;2023-07-29T02:58:24;98916.84;;;16.30;100.00
74960;BME280;63518;49.572;1.106;2023-07-29T03:00:53;98898.91;;;16.19;100.00
74960;BME280;63518;49.572;1.106;2023-07-29T03:03:19;98901.97;;;16.26;100.00
74960;BME280;63518;49.572;1.106;2023-07-29T03:05:47;98908.91;;;15.99;100.00
74960;BME280;63518;49.572;1.106;2023-07-29T03:08:14;98904.00;;;16.17;100.00
74960;BME280;63518;49.572;1.106;2023-07-29T03:10:41;98910.66;;;16.04;100.00
74960;BME280;63518;49.572;1.106;2023-07-29T03:13:08;98900.09;;;15.97;100.00
74960;BME280;63518;49.572;1.106;2023-07-29T03:15:35;98897.78;;;15.99;100.00
74960;BME280;63518;49.572;1.106;2023-07-29T03:18:02;98903.34;;;15.99;100.00
74960;BME280;63518;49.572;1.106;2023-07-29T03:20:29;98913.66;;;15.99;100.00
74960;BME280;63518;49.572;1.106;2023-07-29T03:22:56;98908.00;;;15.87;100.00
74960;BME280;63518;49.572;1.106;2023-07-29T03:25:25;98908.09;;;15.99;100.00
74960;BME280;63518;49.572;1.106;2023-07-29T03:27:52;98905.66;;;15.97;100.00
74960;BME280;63518;49.572;1.106;2023-07-29T03:30:20;98905.66;;;15.97;100.00
74960;BME280;63518;49.572;1.106;2023-07-29T03:32:49;98905.50;;;15.73;100.00
74960;BME280;63518;49.572;1.106;2023-07-29T03:35:16;98901.91;;;15.72;100.00
74960;BME280;63518;49.572;1.106;2023-07-29T03:37:43;98908.75;;;15.75;100.00
74960;BME280;63518;49.572;1.106;2023-07-29T03:40:10;98921.22;;;15.69;100.00
74960;BME280;63518;49.572;1.106;2023-07-29T03:42:37;98926.91;;;15.72;100.00
74960;BME280;63518;49.572;1.106;2023-07-29T03:45:04;98916.19;;;15.62;100.00
74960;BME280;63518;49.572;1.106;2023-07-29T03:47:32;98913.91;;;15.64;100.00
74960;BME280;63518;49.572;1.106;2023-07-29T03:49:59;98906.69;;;15.63;100.00
74960;BME280;63518;49.572;1.106;2023-07-29T03:52:26;98921.38;;;15.72;100.00
74960;BME280;63518;49.572;1.106;2023-07-29T03:54:53;98912.88;;;15.69;100.00
74960;BME280;63518;49.572;1.106;2023-07-29T03:57:19;98913.28;;;15.79;100.00
74960;BME280;63518;49.572;1.106;2023-07-29T03:59:46;98923.25;;;16.01;100.00
74960;BME280;63518;49.572;1.106;2023-07-29T04:02:15;98918.25;;;16.16;100.00
74960;BME280;63518;49.572;1.106;2023-07-29T04:04:42;98931.63;;;16.22;100.00
74960;BME280;63518;49.572;1.106;2023-07-29T04:07:10;98937.50;;;16.00;100.00
74960;BME280;63518;49.572;1.106;2023-07-29T04:09:37;98939.13;;;16.01;100.00
74960;BME280;63518;49.572;1.106;2023-07-29T04:12:04;98927.88;;;15.97;100.00
74960;BME280;63518;49.572;1.106;2023-07-29T04:14:31;98916.63;;;15.94;100.00
74960;BME280;63518;49.572;1.106;2023-07-29T04:16:58;98916.28;;;16.16;100.00
74960;BME280;63518;49.572;1.106;2023-07-29T04:19:25;98932.41;;;16.02;100.00
74960;BME280;63518;49.572;1.106;2023-07-29T04:21:52;98922.31;;;16.18;100.00
74960;BME280;63518;49.572;1.106;2023-07-29T04:24:19;98917.66;;;15.89;100.00
74960;BME280;63518;49.572;1.106;2023-07-29T04:26:47;98941.97;;;15.92;100.00
74960;BME280;63518;49.572;1.106;2023-07-29T04:29:13;98938.31;;;16.00;100.00
74960;BME280;63518;49.572;1.106;2023-07-29T04:31:40;98933.38;;;16.06;100.00
74960;BME280;63518;49.572;1.106;2023-07-29T04:34:07;98931.38;;;15.86;100.00
74960;BME280;63518;49.572;1.106;2023-07-29T04:36:35;98924.41;;;15.79;100.00
74960;BME280;63518;49.572;1.106;2023-07-29T04:39:03;98942.22;;;15.78;100.00
74960;BME280;63518;49.572;1.106;2023-07-29T04:41:30;98933.50;;;15.89;100.00
74960;BME280;63518;49.572;1.106;2023-07-29T04:43:56;98947.56;;;16.13;100.00
74960;BME280;63518;49.572;1.106;2023-07-29T04:46:24;98951.31;;;15.88;100.00
74960;BME280;63518;49.572;1.106;2023-07-29T04:48:51;98928.19;;;15.75;100.00
74960;BME280;63518;49.572;1.106;2023-07-29T04:51:18;98945.94;;;16.12;100.00
74960;BME280;63518;49.572;1.106;2023-07-29T04:53:45;98952.88;;;15.76;100.00
74960;BME280;63518;49.572;1.106;2023-07-29T04:56:12;98956.22;;;16.12;100.00
74960;BME280;63518;49.572;1.106;2023-07-29T04:58:43;98951.25;;;16.17;100.00
74960;BME280;63518;49.572;1.106;2023-07-29T05:01:10;98945.44;;;15.89;100.00
74960;BME280;63518;49.572;1.106;2023-07-29T05:03:37;98941.50;;;16.11;100.00
74960;BME280;63518;49.572;1.106;2023-07-29T05:06:07;98915.66;;;16.11;100.00
74960;BME280;63518;49.572;1.106;2023-07-29T05:08:34;98944.06;;;16.16;100.00
74960;BME280;63518;49.572;1.106;2023-07-29T05:11:01;98949.06;;;16.31;100.00
74960;BME280;63518;49.572;1.106;2023-07-29T05:13:28;98959.03;;;16.32;100.00
74960;BME280;63518;49.572;1.106;2023-07-29T05:15:54;98948.94;;;16.19;100.00
74960;BME280;63518;49.572;1.106;2023-07-29T05:18:22;98961.44;;;16.13;100.00
74960;BME280;63518;49.572;1.106;2023-07-29T05:20:50;98954.00;;;16.26;100.00
74960;BME280;63518;49.572;1.106;2023-07-29T05:23:16;98942.44;;;16.15;100.00
74960;BME280;63518;49.572;1.106;2023-07-29T05:25:43;98965.22;;;16.08;100.00
74960;BME280;63518;49.572;1.106;2023-07-29T05:28:10;98955.38;;;16.11;100.00
74960;BME280;63518;49.572;1.106;2023-07-29T05:30:37;98949.97;;;16.15;100.00
74960;BME280;63518;49.572;1.106;2023-07-29T05:33:06;98943.59;;;16.14;100.00
74960;BME280;63518;49.572;1.106;2023-07-29T05:35:36;98953.78;;;16.52;100.00
74960;BME280;63518;49.572;1.106;2023-07-29T05:38:03;98957.66;;;16.39;100.00
74960;BME280;63518;49.572;1.106;2023-07-29T05:40:32;98949.53;;;16.33;100.00
74960;BME280;63518;49.572;1.106;2023-07-29T05:42:59;98939.69;;;16.15;100.00
74960;BME280;63518;49.572;1.106;2023-07-29T05:45:26;98951.63;;;16.37;100.00
74960;BME280;63518;49.572;1.106;2023-07-29T05:47:53;98945.19;;;16.45;100.00
74960;BME280;63518;49.572;1.106;2023-07-29T05:50:21;98960.44;;;16.39;100.00
74960;BME280;63518;49.572;1.106;2023-07-29T05:52:47;98959.34;;;16.52;100.00
74960;BME280;63518;49.572;1.106;2023-07-29T05:55:14;98939.59;;;16.03;100.00
74960;BME280;63518;49.572;1.106;2023-07-29T05:57:41;98953.94;;;16.34;100.00
74960;BME280;63518;49.572;1.106;2023-07-29T06:00:10;98954.59;;;16.52;100.00
74960;BME280;63518;49.572;1.106;2023-07-29T06:02:37;98952.56;;;16.41;100.00
74960;BME280;63518;49.572;1.106;2023-07-29T06:05:04;98947.00;;;16.41;100.00
74960;BME280;63518;49.572;1.106;2023-07-29T06:07:32;98949.31;;;16.39;100.00
74960;BME280;63518;49.572;1.106;2023-07-29T06:10:00;98947.69;;;16.38;100.00
74960;BME280;63518;49.572;1.106;2023-07-29T06:12:27;98953.53;;;16.45;100.00
74960;BME280;63518;49.572;1.106;2023-07-29T06:14:54;98960.91;;;16.41;100.00
74960;BME280;63518;49.572;1.106;2023-07-29T06:17:21;98946.84;;;16.58;100.00
74960;BME280;63518;49.572;1.106;2023-07-29T06:19:48;98977.13;;;16.39;100.00
74960;BME280;63518;49.572;1.106;2023-07-29T06:22:15;98969.53;;;16.48;100.00
74960;BME280;63518;49.572;1.106;2023-07-29T06:24:42;98981.81;;;16.26;100.00
74960;BME280;63518;49.572;1.106;2023-07-29T06:27:08;98967.06;;;16.04;100.00
74960;BME280;63518;49.572;1.106;2023-07-29T06:29:35;98984.59;;;16.47;100.00
74960;BME280;63518;49.572;1.106;2023-07-29T06:32:03;98968.19;;;16.33;100.00
74960;BME280;63518;49.572;1.106;2023-07-29T06:34:30;98978.38;;;16.29;100.00
74960;BME280;63518;49.572;1.106;2023-07-29T06:36:57;98970.34;;;16.48;100.00
74960;BME280;63518;49.572;1.106;2023-07-29T06:39:24;98958.59;;;16.43;100.00
74960;BME280;63518;49.572;1.106;2023-07-29T06:41:50;98971.69;;;16.63;100.00
74960;BME280;63518;49.572;1.106;2023-07-29T06:44:17;98968.13;;;17.08;100.00
74960;BME280;63518;49.572;1.106;2023-07-29T06:46:44;98972.91;;;17.19;100.00
74960;BME280;63518;49.572;1.106;2023-07-29T06:49:11;98968.88;;;16.96;100.00
74960;BME280;63518;49.572;1.106;2023-07-29T06:51:38;98958.41;;;17.26;100.00
74960;BME280;63518;49.572;1.106;2023-07-29T06:54:05;98968.16;;;17.20;100.00
74960;BME280;63518;49.572;1.106;2023-07-29T06:56:32;98962.38;;;17.74;100.00
74960;BME280;63518;49.572;1.106;2023-07-29T06:58:59;98967.22;;;17.16;100.00
74960;BME280;63518;49.572;1.106;2023-07-29T07:01:25;98972.13;;;17.31;100.00
74960;BME280;63518;49.572;1.106;2023-07-29T07:03:52;98975.13;;;17.26;100.00
74960;BME280;63518;49.572;1.106;2023-07-29T07:06:21;98982.50;;;17.10;100.00
74960;BME280;63518;49.572;1.106;2023-07-29T07:08:48;98976.94;;;17.10;100.00
74960;BME280;63518;49.572;1.106;2023-07-29T07:11:16;98971.31;;;17.31;100.00
74960;BME280;63518;49.572;1.106;2023-07-29T07:13:43;98977.84;;;17.47;100.00
74960;BME280;63518;49.572;1.106;2023-07-29T07:16:10;98979.88;;;17.38;100.00
74960;BME280;63518;49.572;1.106;2023-07-29T07:18:36;98969.78;;;17.45;100.00
74960;BME280;63518;49.572;1.106;2023-07-29T07:21:03;98978.53;;;17.56;100.00
74960;BME280;63518;49.572;1.106;2023-07-29T07:23:30;98976.28;;;17.98;100.00
74960;BME280;63518;49.572;1.106;2023-07-29T07:25:57;98976.06;;;17.91;100.00
74960;BME280;63518;49.572;1.106;2023-07-29T07:28:24;98969.53;;;17.99;100.00
74960;BME280;63518;49.572;1.106;2023-07-29T07:30:51;98985.00;;;17.97;100.00
74960;BME280;63518;49.572;1.106;2023-07-29T07:33:18;98983.16;;;17.77;100.00
74960;BME280;63518;49.572;1.106;2023-07-29T07:35:45;98990.22;;;17.98;100.00
74960;BME280;63518;49.572;1.106;2023-07-29T07:38:12;98993.66;;;18.44;100.00
74960;BME280;63518;49.572;1.106;2023-07-29T07:40:39;98993.00;;;18.23;100.00
74960;BME280;63518;49.572;1.106;2023-07-29T07:43:06;98985.59;;;18.83;100.00
74960;BME280;63518;49.572;1.106;2023-07-29T07:45:33;98984.19;;;18.61;100.00
74960;BME280;63518;49.572;1.106;2023-07-29T07:47:59;98979.00;;;18.75;100.00
74960;BME280;63518;49.572;1.106;2023-07-29T07:50:29;98981.63;;;18.96;100.00
74960;BME280;63518;49.572;1.106;2023-07-29T07:52:56;98986.31;;;19.08;100.00
74960;BME280;63518;49.572;1.106;2023-07-29T07:55:23;98986.91;;;19.01;100.00
74960;BME280;63518;49.572;1.106;2023-07-29T07:57:50;98984.22;;;18.77;100.00
74960;BME280;63518;49.572;1.106;2023-07-29T08:00:17;98995.19;;;18.70;100.00
74960;BME280;63518;49.572;1.106;2023-07-29T08:02:46;99000.50;;;19.31;100.00
74960;BME280;63518;49.572;1.106;2023-07-29T08:05:13;98992.13;;;19.78;100.00
74960;BME280;63518;49.572;1.106;2023-07-29T08:07:40;98972.38;;;19.55;100.00
74960;BME280;63518;49.572;1.106;2023-07-29T08:10:07;98983.28;;;19.60;100.00
74960;BME280;63518;49.572;1.106;2023-07-29T08:12:35;98994.13;;;19.78;100.00
74960;BME280;63518;49.572;1.106;2023-07-29T08:15:02;98986.53;;;20.48;100.00
74960;BME280;63518;49.572;1.106;2023-07-29T08:17:29;98984.56;;;20.88;100.00
74960;BME280;63518;49.572;1.106;2023-07-29T08:19:56;98959.53;;;20.02;100.00
74960;BME280;63518;49.572;1.106;2023-07-29T08:22:23;98987.97;;;20.58;100.00
74960;BME280;63518;49.572;1.106;2023-07-29T08:24:50;98961.78;;;20.31;100.00
74960;BME280;63518;49.572;1.106;2023-07-29T08:27:17;98976.94;;;21.07;100.00
74960;BME280;63518;49.572;1.106;2023-07-29T08:29:44;98978.97;;;20.68;100.00
74960;BME280;63518;49.572;1.106;2023-07-29T08:32:11;98985.91;;;20.74;100.00
74960;BME280;63518;49.572;1.106;2023-07-29T08:34:38;98989.72;;;20.12;100.00
74960;BME280;63518;49.572;1.106;2023-07-29T08:37:05;98972.63;;;20.91;100.00
74960;BME280;63518;49.572;1.106;2023-07-29T08:39:32;98986.22;;;21.12;100.00
74960;BME280;63518;49.572;1.106;2023-07-29T08:42:11;98990.13;;;21.07;100.00
74960;BME280;63518;49.572;1.106;2023-07-29T08:44:42;98976.16;;;21.30;100.00
74960;BME280;63518;49.572;1.106;2023-07-29T08:47:11;98979.66;;;21.69;100.00
74960;BME280;63518;49.572;1.106;2023-07-29T08:49:38;98979.09;;;21.83;100.00
74960;BME280;63518;49.572;1.106;2023-07-29T08:52:06;98991.41;;;21.78;100.00
74960;BME280;63518;49.572;1.106;2023-07-29T08:54:33;98978.28;;;21.82;100.00
74960;BME280;63518;49.572;1.106;2023-07-29T08:57:03;98986.47;;;21.45;100.00
74960;BME280;63518;49.572;1.106;2023-07-29T08:59:30;98990.16;;;21.49;100.00
74960;BME280;63518;49.572;1.106;2023-07-29T09:01:58;98986.81;;;21.89;100.00
74960;BME280;63518;49.572;1.106;2023-07-29T09:04:25;98981.19;;;21.89;100.00
74960;BME280;63518;49.572;1.106;2023-07-29T09:06:53;98989.22;;;21.22;100.00
74960;BME280;63518;49.572;1.106;2023-07-29T09:09:21;98972.34;;;20.76;100.00
74960;BME280;63518;49.572;1.106;2023-07-29T09:11:48;98981.00;;;21.10;100.00
74960;BME280;63518;49.572;1.106;2023-07-29T09:14:15;98975.03;;;21.80;100.00
74960;BME280;63518;49.572;1.106;2023-07-29T09:16:43;98965.31;;;22.91;100.00
74960;BME280;63518;49.572;1.106;2023-07-29T09:19:10;98973.56;;;23.47;99.85
74960;BME280;63518;49.572;1.106;2023-07-29T09:21:41;98969.25;;;23.61;99.06
74960;BME280;63518;49.572;1.106;2023-07-29T09:24:08;98959.63;;;23.21;98.48
74960;BME280;63518;49.572;1.106;2023-07-29T09:26:35;98975.41;;;23.73;100.00
74960;BME280;63518;49.572;1.106;2023-07-29T09:29:03;98970.00;;;24.02;100.00
74960;BME280;63518;49.572;1.106;2023-07-29T09:31:30;98967.75;;;25.23;97.52
74960;BME280;63518;49.572;1.106;2023-07-29T09:33:58;98974.06;;;24.88;91.71
74960;BME280;63518;49.572;1.106;2023-07-29T09:36:26;98969.69;;;23.22;96.93
74960;BME280;63518;49.572;1.106;2023-07-29T09:38:54;98967.25;;;24.13;96.90
74960;BME280;63518;49.572;1.106;2023-07-29T09:41:26;98960.00;;;24.15;94.26
74960;BME280;63518;49.572;1.106;2023-07-29T09:43:57;98976.50;;;23.62;90.84
74960;BME280;63518;49.572;1.106;2023-07-29T09:46:25;98965.31;;;25.21;89.64
74960;BME280;63518;49.572;1.106;2023-07-29T09:48:54;98952.28;;;26.67;82.43
74960;BME280;63518;49.572;1.106;2023-07-29T09:51:23;98965.97;;;26.86;81.37
74960;BME280;63518;49.572;1.106;2023-07-29T09:53:51;98952.34;;;26.52;85.78
74960;BME280;63518;49.572;1.106;2023-07-29T09:56:25;98967.28;;;25.03;89.59
74960;BME280;63518;49.572;1.106;2023-07-29T09:58:55;98966.31;;;23.46;92.67
74960;BME280;63518;49.572;1.106;2023-07-29T10:01:24;98965.47;;;23.46;97.92
74960;BME280;63518;49.572;1.106;2023-07-29T10:03:51;98959.38;;;23.37;95.31
74960;BME280;63518;49.572;1.106;2023-07-29T10:06:19;98975.97;;;21.19;100.00
74960;BME280;63518;49.572;1.106;2023-07-29T10:08:47;98978.34;;;18.66;100.00
74960;BME280;63518;49.572;1.106;2023-07-29T10:11:14;98969.38;;;20.31;100.00
74960;BME280;63518;49.572;1.106;2023-07-29T10:13:42;98984.97;;;20.32;100.00
74960;BME280;63518;49.572;1.106;2023-07-29T10:16:23;98971.09;;;20.74;100.00
74960;BME280;63518;49.572;1.106;2023-07-29T10:18:51;98968.84;;;21.71;100.00
74960;BME280;63518;49.572;1.106;2023-07-29T10:21:21;98970.00;;;21.93;100.00
74960;BME280;63518;49.572;1.106;2023-07-29T10:23:49;98946.81;;;23.23;100.00
74960;BME280;63518;49.572;1.106;2023-07-29T10:26:20;98963.31;;;23.69;100.00
74960;BME280;63518;49.572;1.106;2023-07-29T10:28:48;98952.66;;;23.48;100.00
74960;BME280;63518;49.572;1.106;2023-07-29T10:31:17;98968.00;;;23.14;100.00
74960;BME280;63518;49.572;1.106;2023-07-29T10:33:45;98971.84;;;23.80;100.00
74960;BME280;63518;49.572;1.106;2023-07-29T10:36:13;98967.06;;;23.43;100.00
74960;BME280;63518;49.572;1.106;2023-07-29T10:38:40;98972.53;;;22.88;100.00
74960;BME280;63518;49.572;1.106;2023-07-29T10:41:08;98979.66;;;21.96;100.00
74960;BME280;63518;49.572;1.106;2023-07-29T10:43:36;99000.06;;;20.82;100.00
74960;BME280;63518;49.572;1.106;2023-07-29T10:46:17;99014.81;;;20.08;100.00
74960;BME280;63518;49.572;1.106;2023-07-29T10:51:37;99002.50;;;19.78;100.00
74960;BME280;63518;49.572;1.106;2023-07-29T10:54:10;99006.81;;;19.28;100.00
74960;BME280;63518;49.572;1.106;2023-07-29T10:56:42;99015.94;;;19.88;100.00
74960;BME280;63518;49.572;1.106;2023-07-29T11:01:56;99019.00;;;19.35;100.00
74960;BME280;63518;49.572;1.106;2023-07-29T11:04:26;99020.94;;;19.51;100.00
74960;BME280;63518;49.572;1.106;2023-07-29T11:17:39;99028.22;;;18.15;100.00
74960;BME280;63518;49.572;1.106;2023-07-29T11:20:07;99024.56;;;19.20;100.00
74960;BME280;63518;49.572;1.106;2023-07-29T11:22:35;99022.13;;;18.50;100.00
74960;BME280;63518;49.572;1.106;2023-07-29T11:25:02;99039.28;;;19.04;100.00
74960;BME280;63518;49.572;1.106;2023-07-29T11:27:30;99034.03;;;19.03;100.00
74960;BME280;63518;49.572;1.106;2023-07-29T11:30:01;99032.09;;;18.91;100.00
74960;BME280;63518;49.572;1.106;2023-07-29T11:32:28;99036.84;;;19.03;100.00
74960;BME280;63518;49.572;1.106;2023-07-29T11:34:55;99035.34;;;19.05;100.00
74960;BME280;63518;49.572;1.106;2023-07-29T11:37:22;99042.34;;;18.99;100.00
74960;BME280;63518;49.572;1.106;2023-07-29T11:39:49;99036.66;;;19.11;100.00
74960;BME280;63518;49.572;1.106;2023-07-29T11:42:16;99032.81;;;19.16;100.00
74960;BME280;63518;49.572;1.106;2023-07-29T11:44:43;99034.13;;;19.98;100.00
74960;BME280;63518;49.572;1.106;2023-07-29T11:47:11;99044.03;;;19.32;100.00
74960;BME280;63518;49.572;1.106;2023-07-29T11:49:40;99048.13;;;20.48;100.00
74960;BME280;63518;49.572;1.106;2023-07-29T11:52:08;99037.56;;;20.42;100.00
74960;BME280;63518;49.572;1.106;2023-07-29T11:54:36;99045.09;;;20.73;100.00
74960;BME280;63518;49.572;1.106;2023-07-29T11:57:07;99045.31;;;20.84;100.00
74960;BME280;63518;49.572;1.106;2023-07-29T11:59:37;99048.97;;;20.68;100.00
74960;BME280;63518;49.572;1.106;2023-07-29T12:02:07;99039.13;;;20.39;100.00
74960;BME280;63518;49.572;1.106;2023-07-29T12:04:40;99038.59;;;20.88;100.00
74960;BME280;63518;49.572;1.106;2023-07-29T12:07:08;99041.41;;;20.88;100.00
74960;BME280;63518;49.572;1.106;2023-07-29T12:09:36;99037.63;;;21.00;100.00
74960;BME280;63518;49.572;1.106;2023-07-29T12:12:05;99046.41;;;19.61;100.00
74960;BME280;63518;49.572;1.106;2023-07-29T12:14:35;99051.03;;;20.01;100.00
74960;BME280;63518;49.572;1.106;2023-07-29T12:17:04;99066.16;;;19.53;100.00
74960;BME280;63518;49.572;1.106;2023-07-29T12:22:01;99065.97;;;19.18;100.00
74960;BME280;63518;49.572;1.106;2023-07-29T12:24:32;99036.66;;;20.38;100.00
74960;BME280;63518;49.572;1.106;2023-07-29T12:26:59;99063.44;;;19.56;100.00
74960;BME280;63518;49.572;1.106;2023-07-29T12:29:27;99061.16;;;21.15;100.00
74960;BME280;63518;49.572;1.106;2023-07-29T12:32:02;99053.63;;;21.38;100.00
74960;BME280;63518;49.572;1.106;2023-07-29T12:34:31;99062.34;;;22.25;100.00
74960;BME280;63518;49.572;1.106;2023-07-29T12:36:59;99053.38;;;21.70;100.00
74960;BME280;63518;49.572;1.106;2023-07-29T12:39:28;99054.16;;;23.33;100.00
74960;BME280;63518;49.572;1.106;2023-07-29T12:41:57;99067.38;;;23.66;97.38
74960;BME280;63518;49.572;1.106;2023-07-29T12:44:30;99059.97;;;22.04;100.00
74960;BME280;63518;49.572;1.106;2023-07-29T12:46:57;99047.66;;;21.01;100.00
74960;BME280;63518;49.572;1.106;2023-07-29T12:49:25;99060.56;;;21.90;100.00
74960;BME280;63518;49.572;1.106;2023-07-29T12:51:51;99045.06;;;23.09;100.00
74960;BME280;63518;49.572;1.106;2023-07-29T12:54:18;99053.16;;;23.51;93.26
74960;BME280;63518;49.572;1.106;2023-07-29T12:56:45;99048.06;;;26.11;86.44
74960;BME280;63518;49.572;1.106;2023-07-29T12:59:12;99064.59;;;22.98;90.66
74960;BME280;63518;49.572;1.106;2023-07-29T13:01:39;99030.22;;;22.22;98.39
74960;BME280;63518;49.572;1.106;2023-07-29T13:04:06;99052.00;;;24.52;88.26
74960;BME280;63518;49.572;1.106;2023-07-29T13:06:32;99043.72;;;24.84;83.93
74960;BME280;63518;49.572;1.106;2023-07-29T13:08:59;99054.53;;;24.16;86.00
74960;BME280;63518;49.572;1.106;2023-07-29T13:11:26;99051.34;;;24.80;87.50
74960;BME280;63518;49.572;1.106;2023-07-29T13:13:53;99040.31;;;25.47;84.98
74960;BME280;63518;49.572;1.106;2023-07-29T13:16:20;99052.03;;;23.56;86.88
74960;BME280;63518;49.572;1.106;2023-07-29T13:18:47;99055.59;;;22.29;88.77